createdAt,value
2022-08-12T00:00:20.301Z,18.58
2022-08-12T00:03:26.503Z,18.47
2022-08-12T00:06:32.939Z,18.18
2022-08-12T00:09:40.427Z,18.47
2022-08-12T00:12:46.632Z,18.42
2022-08-12T00:15:54.652Z,18.38
2022-08-12T00:19:00.792Z,18.13
2022-08-12T00:22:06.574Z,18.23
2022-08-12T00:25:18.054Z,18.27
2022-08-12T00:28:24.253Z,18.23
2022-08-12T00:31:31.562Z,18.04
2022-08-12T00:34:37.741Z,17.93
2022-08-12T00:37:43.870Z,18.04
2022-08-12T00:40:51.060Z,17.94
2022-08-12T00:43:39.668Z,17.89
2022-08-12T00:46:37.213Z,17.86
2022-08-12T00:49:26.832Z,17.70
2022-08-12T00:52:15.338Z,17.65
2022-08-12T00:55:06.004Z,17.72
2022-08-12T00:57:55.958Z,17.78
2022-08-12T01:00:45.030Z,17.81
2022-08-12T01:03:49.883Z,17.46
2022-08-12T01:06:56.151Z,17.55
2022-08-12T01:10:02.217Z,17.58
2022-08-12T01:12:51.230Z,17.62
2022-08-12T01:15:41.316Z,17.55
2022-08-12T01:18:33.635Z,17.52
2022-08-12T01:21:39.989Z,16.75
2022-08-12T01:24:48.959Z,17.35
2022-08-12T01:27:40.480Z,17.38
2022-08-12T01:30:33.724Z,17.32
2022-08-12T01:33:23.164Z,17.24
2022-08-12T01:36:12.907Z,17.21
2022-08-12T01:39:01.851Z,17.20
2022-08-12T01:41:55.372Z,16.99
2022-08-12T01:44:44.796Z,17.14
2022-08-12T01:47:42.901Z,17.05
2022-08-12T01:50:38.135Z,16.98
2022-08-12T01:53:50.295Z,16.95
2022-08-12T01:56:49.004Z,17.02
2022-08-12T01:59:50.661Z,16.96
2022-08-12T02:02:44.609Z,16.71
2022-08-12T02:05:59.488Z,16.94
2022-08-12T02:09:08.807Z,16.91
2022-08-12T02:12:06.242Z,16.94
2022-08-12T02:15:06.187Z,16.99
2022-08-12T02:18:05.395Z,16.86
2022-08-12T02:21:02.010Z,16.83
2022-08-12T02:23:50.784Z,16.86
2022-08-12T02:26:41.143Z,16.84
2022-08-12T02:29:30.176Z,16.77
2022-08-12T02:32:20.408Z,16.85
2022-08-12T02:35:11.381Z,16.80
2022-08-12T02:38:01.335Z,16.67
2022-08-12T02:40:54.571Z,16.48
2022-08-12T02:43:49.827Z,16.61
2022-08-12T02:46:39.190Z,16.57
2022-08-12T02:49:33.037Z,16.55
2022-08-12T02:52:23.404Z,16.44
2022-08-12T02:55:28.741Z,16.63
2022-08-12T02:58:32.878Z,16.55
2022-08-12T03:01:28.534Z,16.50
2022-08-12T03:04:27.512Z,16.58
2022-08-12T03:07:21.388Z,16.51
2022-08-12T03:10:16.207Z,16.45
2022-08-12T03:13:08.145Z,16.46
2022-08-12T03:15:56.855Z,16.28
2022-08-12T03:18:46.430Z,16.28
2022-08-12T03:21:52.925Z,16.30
2022-08-12T03:24:47.303Z,16.25
2022-08-12T03:27:40.425Z,16.17
2022-08-12T03:30:31.380Z,16.20
2022-08-12T03:33:20.202Z,16.13
2022-08-12T03:36:10.562Z,16.14
2022-08-12T03:39:35.376Z,16.10
2022-08-12T03:42:40.632Z,15.97
2022-08-12T03:45:51.892Z,15.95
2022-08-12T03:48:58.739Z,15.61
2022-08-12T03:52:05.475Z,15.89
2022-08-12T03:55:11.721Z,15.96
2022-08-12T03:58:20.302Z,15.76
2022-08-12T04:01:08.870Z,15.88
2022-08-12T04:03:58.023Z,15.87
2022-08-12T04:06:46.593Z,15.74
2022-08-12T04:09:35.888Z,15.64
2022-08-12T04:12:45.195Z,15.76
2022-08-12T04:15:35.205Z,15.84
2022-08-12T04:18:24.160Z,15.72
2022-08-12T04:21:12.748Z,15.87
2022-08-12T04:24:02.268Z,15.67
2022-08-12T04:26:50.865Z,16.05
2022-08-12T04:30:16.340Z,16.02
2022-08-12T04:32:51.101Z,16.11
2022-08-12T04:35:40.641Z,16.24
2022-08-12T04:38:30.933Z,16.30
2022-08-12T04:41:20.882Z,16.20
2022-08-12T04:44:10.114Z,15.99
2022-08-12T04:46:58.705Z,15.96
2022-08-12T04:49:49.211Z,15.94
2022-08-12T04:52:37.916Z,15.91
2022-08-12T04:55:26.602Z,16.01
2022-08-12T04:58:15.207Z,16.02
2022-08-12T05:01:18.436Z,16.32
2022-08-12T05:04:08.559Z,16.60
2022-08-12T05:06:58.486Z,16.67
2022-08-12T05:09:58.908Z,16.84
2022-08-12T05:12:53.352Z,16.89
2022-08-12T05:16:02.613Z,16.89
2022-08-12T05:18:51.115Z,17.11
2022-08-12T05:21:39.675Z,17.28
2022-08-12T05:24:31.878Z,17.40
2022-08-12T05:27:22.579Z,17.48
2022-08-12T05:30:12.573Z,17.59
2022-08-12T05:33:05.141Z,17.80
2022-08-12T05:35:53.847Z,17.81
2022-08-12T05:38:57.976Z,17.90
2022-08-12T05:41:47.870Z,18.16
2022-08-12T05:44:36.702Z,18.34
2022-08-12T05:47:36.708Z,18.52
2022-08-12T05:50:35.580Z,18.75
2022-08-12T05:53:24.240Z,18.95
2022-08-12T05:56:23.834Z,19.06
2022-08-12T05:59:14.169Z,19.20
2022-08-12T06:02:09.837Z,19.39
2022-08-12T06:05:02.341Z,19.63
2022-08-12T06:08:02.309Z,19.79
2022-08-12T06:10:51.481Z,19.98
2022-08-12T06:13:54.077Z,20.34
2022-08-12T06:16:46.267Z,20.50
2022-08-12T06:20:27.993Z,20.57
2022-08-12T06:22:44.801Z,20.79
2022-08-12T06:25:34.475Z,20.82
2022-08-12T06:28:23.096Z,21.10
2022-08-12T06:31:26.226Z,21.34
2022-08-12T06:35:26.967Z,21.60
2022-08-12T06:37:25.812Z,21.97
2022-08-12T06:40:15.074Z,21.89
2022-08-12T06:43:02.712Z,22.15
2022-08-12T06:45:51.288Z,22.19
2022-08-12T06:48:42.680Z,22.37
2022-08-12T06:51:33.109Z,22.37
2022-08-12T06:54:30.799Z,22.56
2022-08-12T06:58:01.926Z,22.71
2022-08-12T07:00:33.029Z,22.93
2022-08-12T07:03:27.512Z,23.27
2022-08-12T07:06:16.425Z,23.50
2022-08-12T07:09:07.073Z,23.25
2022-08-12T07:11:55.637Z,22.99
2022-08-12T07:14:48.452Z,23.59
2022-08-12T07:17:38.238Z,23.56
2022-08-12T07:20:51.341Z,23.50
2022-08-12T07:23:39.377Z,23.63
2022-08-12T07:26:29.353Z,23.96
2022-08-12T07:29:18.691Z,24.08
2022-08-12T07:32:07.603Z,24.42
2022-08-12T07:34:56.194Z,24.78
2022-08-12T07:37:45.153Z,24.73
2022-08-12T07:40:33.874Z,24.76
2022-08-12T07:43:24.310Z,24.77
2022-08-12T07:46:16.292Z,24.75
2022-08-12T07:49:06.935Z,24.79
2022-08-12T07:51:55.484Z,25.12
2022-08-12T07:54:44.333Z,25.24
2022-08-12T07:57:33.445Z,25.25
2022-08-12T08:00:23.676Z,25.64
2022-08-12T08:03:13.288Z,25.78
2022-08-12T08:06:01.807Z,26.23
2022-08-12T08:08:50.389Z,26.54
2022-08-12T08:11:56.590Z,26.94
2022-08-12T08:14:46.410Z,27.19
2022-08-12T08:17:39.908Z,27.28
2022-08-12T08:20:30.226Z,27.47
2022-08-12T08:23:19.668Z,27.40
2022-08-12T08:26:10.615Z,27.45
2022-08-12T08:28:59.528Z,27.66
2022-08-12T08:31:54.193Z,27.13
2022-08-12T08:34:54.500Z,27.58
2022-08-12T08:37:44.754Z,27.71
2022-08-12T08:40:54.614Z,27.66
2022-08-12T08:43:44.714Z,27.59
2022-08-12T08:46:37.523Z,27.25
2022-08-12T08:49:27.031Z,27.69
2022-08-12T08:52:38.940Z,27.38
2022-08-12T08:55:37.444Z,27.26
2022-08-12T08:58:34.317Z,27.28
2022-08-12T09:01:22.871Z,27.40
2022-08-12T09:05:08.252Z,27.64
2022-08-12T09:07:51.598Z,27.48
2022-08-12T09:10:32.588Z,27.88
2022-08-12T09:14:10.630Z,28.00
2022-08-12T09:19:52.413Z,27.90
2022-08-12T09:22:49.012Z,28.05
2022-08-12T09:25:39.418Z,28.20
2022-08-12T09:28:32.879Z,28.28
2022-08-12T09:32:03.802Z,27.94
2022-08-12T09:34:33.276Z,27.85
2022-08-12T09:37:28.346Z,27.75
2022-08-12T09:40:57.611Z,27.89
2022-08-12T09:44:05.140Z,27.67
2022-08-12T09:46:54.148Z,27.91
2022-08-12T09:49:44.531Z,28.10
2022-08-12T09:52:33.155Z,28.09
2022-08-12T09:56:07.329Z,28.17
2022-08-12T09:58:58.849Z,28.28
2022-08-12T10:02:42.009Z,28.51
2022-08-12T10:04:57.808Z,28.37
2022-08-12T10:07:46.341Z,28.71
2022-08-12T10:10:54.954Z,28.77
2022-08-12T10:13:45.057Z,28.84
2022-08-12T10:16:39.307Z,28.66
2022-08-12T10:19:36.715Z,28.68
2022-08-12T10:22:40.487Z,28.77
2022-08-12T10:26:10.052Z,29.22
2022-08-12T10:30:01.789Z,28.54
2022-08-12T10:32:45.278Z,29.25
2022-08-12T10:35:37.854Z,29.46
2022-08-12T10:38:39.257Z,29.87
2022-08-12T10:41:57.242Z,30.00
2022-08-12T10:44:48.817Z,30.14
2022-08-12T10:48:20.585Z,29.98
2022-08-12T10:50:58.631Z,29.93
2022-08-12T10:53:52.707Z,30.15
2022-08-12T10:56:45.287Z,30.00
2022-08-12T11:00:29.169Z,30.06
2022-08-12T11:04:19.436Z,30.69
2022-08-12T11:07:09.834Z,30.93
2022-08-12T11:09:11.604Z,30.83
2022-08-12T11:12:36.727Z,31.08
2022-08-12T11:15:18.595Z,31.29
2022-08-12T11:18:11.878Z,30.94
2022-08-12T11:21:07.025Z,31.30
2022-08-12T11:23:55.606Z,30.56
2022-08-12T11:26:44.387Z,30.91
2022-08-12T11:30:01.739Z,31.37
2022-08-12T11:32:42.795Z,30.88
2022-08-12T11:35:38.899Z,31.04
2022-08-12T11:38:32.999Z,30.48
2022-08-12T11:41:31.018Z,30.84
2022-08-12T11:44:35.063Z,30.74
2022-08-12T11:47:25.445Z,30.97
2022-08-12T11:50:19.604Z,31.06
2022-08-12T11:53:56.340Z,31.21
2022-08-12T11:56:18.412Z,30.67
2022-08-12T12:02:20.257Z,30.74
2022-08-12T12:05:10.007Z,31.32
2022-08-12T12:08:37.945Z,31.48
2022-08-12T12:11:09.338Z,31.65
2022-08-12T12:14:08.101Z,31.55
2022-08-12T12:17:00.234Z,31.20
2022-08-12T12:19:48.916Z,31.20
2022-08-12T12:22:37.946Z,31.44
2022-08-12T12:25:59.636Z,31.87
2022-08-12T12:28:39.690Z,31.69
2022-08-12T12:32:06.933Z,31.37
2022-08-12T12:34:37.071Z,31.40
2022-08-12T12:38:04.251Z,31.34
2022-08-12T12:40:39.828Z,31.80
2022-08-12T12:43:42.873Z,31.85
2022-08-12T12:46:34.727Z,31.76
2022-08-12T12:49:26.194Z,31.82
2022-08-12T12:52:18.676Z,31.89
2022-08-12T12:55:10.981Z,31.80
2022-08-12T12:58:04.812Z,31.48
2022-08-12T13:00:55.257Z,30.77
2022-08-12T13:03:48.856Z,31.12
2022-08-12T13:09:27.152Z,31.82
2022-08-12T13:12:25.339Z,31.80
2022-08-12T13:15:24.841Z,31.19
2022-08-12T13:18:28.682Z,31.12
2022-08-12T13:21:33.208Z,31.01
2022-08-12T13:24:25.653Z,31.60
2022-08-12T13:27:20.913Z,31.53
2022-08-12T13:30:12.067Z,31.76
2022-08-12T13:33:00.806Z,31.75
2022-08-12T13:36:05.563Z,31.91
2022-08-12T13:38:57.931Z,32.22
2022-08-12T13:41:46.616Z,31.68
2022-08-12T13:44:38.313Z,31.38
2022-08-12T13:47:28.659Z,30.54
2022-08-12T13:50:17.364Z,30.89
2022-08-12T13:53:23.803Z,31.01
2022-08-12T13:56:16.019Z,30.35
2022-08-12T13:59:08.117Z,31.40
2022-08-12T14:01:57.471Z,31.35
2022-08-12T14:04:55.922Z,31.33
2022-08-12T14:08:01.484Z,31.32
2022-08-12T14:10:53.329Z,31.45
2022-08-12T14:14:03.541Z,31.73
2022-08-12T14:16:52.284Z,31.40
2022-08-12T14:20:02.122Z,31.17
2022-08-12T14:22:51.882Z,31.54
2022-08-12T14:25:43.369Z,31.45
2022-08-12T14:28:35.015Z,31.30
2022-08-12T14:31:31.433Z,31.09
2022-08-12T14:34:21.722Z,30.91
2022-08-12T14:37:55.973Z,30.94
2022-08-12T14:40:27.531Z,30.68
2022-08-12T14:43:16.893Z,30.62
2022-08-12T14:46:06.501Z,30.70
2022-08-12T14:48:58.789Z,30.94
2022-08-12T14:53:50.780Z,31.01
2022-08-12T14:58:26.952Z,31.41
2022-08-12T15:01:33.004Z,31.58
2022-08-12T15:04:28.686Z,31.73
2022-08-12T15:07:33.706Z,31.60
2022-08-12T15:10:32.270Z,31.64
2022-08-12T15:13:23.592Z,31.27
2022-08-12T15:16:12.719Z,31.46
2022-08-12T15:19:01.434Z,31.36
2022-08-12T15:22:35.352Z,31.30
2022-08-12T15:25:20.131Z,31.47
2022-08-12T15:28:20.402Z,31.45
2022-08-12T15:31:27.725Z,31.23
2022-08-12T15:34:16.689Z,30.88
2022-08-12T15:37:06.092Z,30.89
2022-08-12T15:40:01.110Z,30.96
2022-08-12T15:42:50.765Z,31.18
2022-08-12T15:45:44.506Z,31.27
2022-08-12T15:48:37.443Z,30.79
2022-08-12T15:51:57.142Z,30.87
2022-08-12T15:54:44.808Z,30.97
2022-08-12T15:57:35.606Z,30.91
2022-08-12T16:00:32.945Z,30.94
2022-08-12T16:03:28.528Z,30.77
2022-08-12T16:10:05.129Z,30.03
2022-08-12T16:12:58.687Z,30.78
2022-08-12T16:15:51.115Z,30.77
2022-08-12T16:18:52.690Z,30.74
2022-08-12T16:21:51.556Z,30.57
2022-08-12T16:24:47.084Z,30.41
2022-08-12T16:27:41.878Z,30.34
2022-08-12T16:30:35.055Z,30.08
2022-08-12T16:33:35.911Z,30.02
2022-08-12T16:36:45.947Z,30.07
2022-08-12T16:40:00.404Z,30.10
2022-08-12T16:42:53.940Z,30.08
2022-08-12T16:46:05.399Z,30.20
2022-08-12T16:49:04.342Z,30.04
2022-08-12T16:51:58.021Z,30.08
2022-08-12T16:54:47.949Z,29.82
2022-08-12T16:57:37.586Z,29.93
2022-08-12T17:00:26.281Z,29.76
2022-08-12T17:03:23.891Z,29.67
2022-08-12T17:06:19.544Z,29.59
2022-08-12T17:09:17.826Z,29.56
2022-08-12T17:12:07.653Z,29.57
2022-08-12T17:14:56.184Z,29.67
2022-08-12T17:17:45.329Z,29.60
2022-08-12T17:20:39.653Z,29.44
2022-08-12T17:23:33.222Z,29.37
2022-08-12T17:26:37.313Z,29.29
2022-08-12T17:30:01.283Z,29.31
2022-08-12T17:32:37.081Z,29.46
2022-08-12T17:35:36.685Z,29.49
2022-08-12T17:38:29.427Z,29.41
2022-08-12T17:41:23.184Z,29.29
2022-08-12T17:44:27.685Z,29.18
2022-08-12T17:47:18.695Z,29.10
2022-08-12T17:50:19.668Z,29.21
2022-08-12T17:53:10.694Z,29.12
2022-08-12T17:56:02.543Z,28.89
2022-08-12T17:58:58.687Z,29.05
2022-08-12T18:01:48.487Z,28.99
2022-08-12T18:05:04.512Z,28.84
2022-08-12T18:07:53.481Z,28.79
2022-08-12T18:11:11.929Z,28.65
2022-08-12T18:14:02.927Z,28.58
2022-08-12T18:16:51.952Z,28.47
2022-08-12T18:20:07.076Z,28.38
2022-08-12T18:22:55.829Z,28.32
2022-08-12T18:26:16.719Z,28.21
2022-08-12T18:29:10.598Z,28.09
2022-08-12T18:32:17.936Z,28.00
2022-08-12T18:35:10.909Z,27.87
2022-08-12T18:38:08.038Z,27.82
2022-08-12T18:41:21.042Z,27.72
2022-08-12T18:44:12.835Z,27.61
2022-08-12T18:47:02.303Z,27.49
2022-08-12T18:49:50.902Z,27.41
2022-08-12T18:52:42.982Z,27.26
2022-08-12T18:55:37.977Z,27.15
2022-08-12T18:58:30.187Z,27.02
2022-08-12T19:02:19.598Z,26.97
2022-08-12T19:04:31.689Z,26.85
2022-08-12T19:07:21.917Z,26.70
2022-08-12T19:10:11.393Z,26.42
2022-08-12T19:13:23.029Z,26.16
2022-08-12T19:16:13.178Z,26.17
2022-08-12T19:19:06.516Z,26.08
2022-08-12T19:21:56.712Z,25.89
2022-08-12T19:25:02.944Z,25.86
2022-08-12T19:27:55.862Z,25.70
2022-08-12T19:31:03.975Z,25.57
2022-08-12T19:34:25.500Z,25.42
2022-08-12T19:37:07.372Z,25.28
2022-08-12T19:40:07.947Z,25.21
2022-08-12T19:43:01.823Z,24.99
2022-08-12T19:45:56.349Z,24.82
2022-08-12T19:48:45.563Z,24.65
2022-08-12T19:51:49.560Z,24.52
2022-08-12T19:54:44.061Z,24.26
2022-08-12T19:58:01.489Z,24.19
2022-08-12T20:00:54.784Z,24.05
2022-08-12T20:03:57.368Z,23.97
2022-08-12T20:06:51.458Z,23.88
2022-08-12T20:09:42.985Z,23.70
2022-08-12T20:12:44.702Z,23.57
2022-08-12T20:15:45.018Z,23.45
2022-08-12T20:18:53.442Z,23.31
2022-08-12T20:21:43.620Z,23.25
2022-08-12T20:24:37.570Z,23.07
2022-08-12T20:28:03.106Z,22.95
2022-08-12T20:30:53.595Z,22.87
2022-08-12T20:33:56.218Z,22.76
2022-08-12T20:36:45.618Z,22.55
2022-08-12T20:39:53.667Z,22.63
2022-08-12T20:42:45.535Z,22.52
2022-08-12T20:45:50.705Z,22.38
2022-08-12T20:48:46.967Z,22.32
2022-08-12T20:51:55.800Z,22.19
2022-08-12T20:54:48.374Z,22.04
2022-08-12T20:57:37.671Z,22.07
2022-08-12T21:00:28.684Z,22.01
2022-08-12T21:03:34.576Z,22.04
2022-08-12T21:06:41.253Z,21.98
2022-08-12T21:09:31.746Z,21.90
2022-08-12T21:12:37.521Z,21.86
2022-08-12T21:15:53.287Z,21.82
2022-08-12T21:18:37.608Z,21.85
2022-08-12T21:21:40.680Z,21.81
2022-08-12T21:24:36.829Z,21.72
2022-08-12T21:27:59.553Z,21.67
2022-08-12T21:30:54.739Z,21.64
2022-08-12T21:34:07.165Z,21.82
2022-08-12T21:37:01.655Z,21.71
2022-08-12T21:40:13.286Z,21.88
2022-08-12T21:43:05.394Z,21.84
2022-08-12T21:46:01.386Z,21.82
2022-08-12T21:48:54.460Z,21.74
2022-08-12T21:51:50.643Z,21.69
2022-08-12T21:54:42.750Z,21.66
2022-08-12T21:57:36.351Z,21.61
2022-08-12T22:00:39.476Z,21.34
2022-08-12T22:04:02.879Z,21.57
2022-08-12T22:06:55.341Z,21.54
2022-08-12T22:09:47.882Z,21.42
2022-08-12T22:12:46.415Z,21.58
2022-08-12T22:15:35.033Z,21.64
2022-08-12T22:18:23.863Z,21.57
2022-08-12T22:21:17.733Z,21.51
2022-08-12T22:24:09.641Z,21.46
2022-08-12T22:27:31.695Z,21.40
2022-08-12T22:30:39.266Z,21.36
2022-08-12T22:33:27.980Z,21.31
2022-08-12T22:36:21.914Z,21.17
2022-08-12T22:39:17.403Z,21.12
2022-08-12T22:42:24.271Z,21.09
2022-08-12T22:45:30.454Z,21.03
2022-08-12T22:48:26.688Z,20.87
2022-08-12T22:51:19.224Z,20.74
2022-08-12T22:54:10.129Z,20.74
2022-08-12T22:57:18.941Z,20.68
2022-08-12T23:00:27.044Z,20.60
2022-08-12T23:03:49.544Z,20.44
2022-08-12T23:06:26.937Z,20.41
2022-08-12T23:09:16.743Z,20.30
2022-08-12T23:12:05.895Z,20.26
2022-08-12T23:14:54.821Z,20.18
2022-08-12T23:17:45.896Z,20.08
2022-08-12T23:20:34.614Z,20.00
2022-08-12T23:23:23.226Z,19.78
2022-08-12T23:26:12.298Z,19.87
2022-08-12T23:29:26.002Z,19.81
2022-08-12T23:32:36.664Z,19.72
2022-08-12T23:35:25.624Z,19.72
2022-08-12T23:38:34.428Z,19.65
2022-08-12T23:41:23.901Z,19.60
2022-08-12T23:44:12.599Z,19.57
2022-08-12T23:47:04.388Z,19.52
2022-08-12T23:49:58.410Z,19.49
2022-08-12T23:52:49.171Z,19.44
2022-08-12T23:55:40.896Z,19.20
2022-08-12T23:58:31.159Z,19.38
